Time;durP1;ratioP1;P1;durP2;ratioP2;P2;SDS_P1;SDS_P2;PMS_P1;PMS_P2;Temp;Humidity;BMP_temperature;BMP_pressure;BME280_temperature;BME280_humidity;BME280_pressure;Samples;Min_cycle;Max_cycle;Signal;HPM_P1;HPM_P2
2022/08/27 00:01:15;;;;;;;7.63;6.80;;;27.50;52.00;;;;;;5035386;28;21090;-89
2022/08/27 00:03:44;;;;;;;7.33;6.60;;;27.60;52.20;;;;;;5075331;28;20470;-88
2022/08/27 00:06:13;;;;;;;8.83;6.27;;;27.60;52.00;;;;;;5073142;28;20503;-89
2022/08/27 00:08:40;;;;;;;7.37;6.37;;;27.70;52.70;;;;;;5043917;28;20463;-88
2022/08/27 00:11:07;;;;;;;9.47;6.10;;;27.70;51.80;;;;;;5040754;28;20454;-89
2022/08/27 00:13:35;;;;;;;9.97;6.63;;;27.70;51.70;;;;;;5050813;28;20475;-90
2022/08/27 00:16:02;;;;;;;10.70;6.80;;;27.70;51.80;;;;;;5044541;28;20444;-90
2022/08/27 00:18:30;;;;;;;12.67;6.60;;;27.70;51.90;;;;;;5030209;28;21018;-89
2022/08/27 00:20:58;;;;;;;8.73;6.20;;;27.70;52.00;;;;;;5046137;28;20437;-89
2022/08/27 00:23:25;;;;;;;11.13;6.90;;;27.70;51.90;;;;;;5045664;28;20472;-89
2022/08/27 00:25:52;;;;;;;8.53;7.63;;;27.70;52.20;;;;;;5071321;28;20907;-90
2022/08/27 00:28:20;;;;;;;12.50;7.30;;;27.70;52.20;;;;;;5055783;28;20468;-89
2022/08/27 00:30:47;;;;;;;8.93;6.50;;;27.60;52.30;;;;;;5040591;28;20437;-88
2022/08/27 00:33:14;;;;;;;13.57;7.37;;;27.60;52.20;;;;;;5055029;28;20476;-89
2022/08/27 00:35:41;;;;;;;9.00;6.80;;;27.60;52.40;;;;;;5036970;28;20451;-89
2022/08/27 00:38:09;;;;;;;7.63;6.83;;;27.60;52.60;;;;;;5049298;28;20505;-89
2022/08/27 00:40:37;;;;;;;10.27;7.17;;;27.60;52.70;;;;;;5072677;28;20448;-88
2022/08/27 00:43:04;;;;;;;9.33;6.87;;;27.50;52.70;;;;;;5049438;28;20470;-90
2022/08/27 00:45:36;;;;;;;7.10;5.90;;;27.50;52.90;;;;;;5055634;28;20472;-89
2022/08/27 00:48:07;;;;;;;7.03;6.33;;;27.50;52.90;;;;;;5064014;28;20886;-90
2022/08/27 00:50:37;;;;;;;10.80;6.83;;;27.50;53.00;;;;;;5041544;28;20445;-89
2022/08/27 00:53:08;;;;;;;10.50;7.70;;;27.50;52.90;;;;;;5047583;28;20844;-89
2022/08/27 00:55:42;;;;;;;11.57;7.33;;;27.60;53.30;;;;;;5057928;28;20535;-91
2022/08/27 00:58:14;;;;;;;13.27;7.80;;;27.50;53.30;;;;;;5063334;28;20444;-89
2022/08/27 01:00:42;;;;;;;13.03;7.50;;;27.50;53.40;;;;;;5056438;28;20455;-89
2022/08/27 01:03:09;;;;;;;11.20;7.60;;;27.50;53.30;;;;;;5040549;28;20484;-89
2022/08/27 01:05:36;;;;;;;9.93;7.30;;;27.60;53.40;;;;;;5049418;28;20476;-90
2022/08/27 01:08:09;;;;;;;10.87;7.10;;;27.60;53.60;;;;;;5058427;28;20486;-89
2022/08/27 01:10:39;;;;;;;11.00;7.73;;;27.50;53.50;;;;;;5032418;28;20468;-88
2022/08/27 01:13:07;;;;;;;9.50;6.90;;;27.50;53.90;;;;;;5065733;28;20457;-88
2022/08/27 01:15:35;;;;;;;12.63;8.50;;;27.50;54.00;;;;;;5061504;28;20450;-89
2022/08/27 01:18:04;;;;;;;12.20;8.53;;;27.50;54.20;;;;;;5058210;28;20456;-90
2022/08/27 01:20:41;;;;;;;10.90;7.87;;;27.40;54.20;;;;;;5057485;28;21217;-88
2022/08/27 01:23:14;;;;;;;10.23;8.13;;;27.40;54.30;;;;;;5060466;28;20856;-89
2022/08/27 01:25:44;;;;;;;13.10;8.10;;;27.40;54.80;;;;;;5042249;28;20465;-88
2022/08/27 01:28:12;;;;;;;12.63;9.33;;;27.30;54.70;;;;;;5049475;28;20459;-88
2022/08/27 01:30:39;;;;;;;10.80;8.60;;;27.30;54.90;;;;;;5048673;28;20448;-88
2022/08/27 01:33:10;;;;;;;12.63;9.23;;;27.40;54.70;;;;;;5057380;28;20747;-88
2022/08/27 01:35:37;;;;;;;17.13;8.57;;;27.40;54.60;;;;;;5049686;28;20440;-92
2022/08/27 01:38:04;;;;;;;11.10;9.10;;;27.40;54.70;;;;;;5057101;28;20453;-88
2022/08/27 01:40:32;;;;;;;11.47;8.43;;;27.40;54.60;;;;;;5048507;28;20459;-88
2022/08/27 01:43:01;;;;;;;11.07;9.00;;;27.40;54.50;;;;;;5029448;28;20448;-90
2022/08/27 01:45:32;;;;;;;15.23;9.53;;;27.50;54.60;;;;;;5075257;28;20471;-89
2022/08/27 01:47:59;;;;;;;17.23;9.87;;;27.50;54.70;;;;;;5049633;28;20802;-89
2022/08/27 01:50:29;;;;;;;12.23;9.47;;;27.50;54.70;;;;;;5058960;28;20766;-88
2022/08/27 01:52:56;;;;;;;13.40;10.20;;;27.50;54.60;;;;;;5076912;28;20472;-89
2022/08/27 01:55:25;;;;;;;12.27;9.07;;;27.50;54.60;;;;;;5058393;28;20838;-88
2022/08/27 01:57:53;;;;;;;11.80;9.93;;;27.50;54.60;;;;;;5060895;28;20448;-89
2022/08/27 02:00:23;;;;;;;13.43;9.37;;;27.40;54.60;;;;;;5074321;28;20814;-88
2022/08/27 02:02:51;;;;;;;10.67;9.40;;;27.40;54.60;;;;;;5079634;28;20444;-89
2022/08/27 02:05:18;;;;;;;12.87;10.50;;;27.40;54.40;;;;;;5056295;28;20529;-87
2022/08/27 02:07:46;;;;;;;13.30;9.47;;;27.40;54.60;;;;;;5065743;28;20458;-90
2022/08/27 02:10:16;;;;;;;14.27;10.03;;;27.40;54.50;;;;;;5055301;28;20460;-89
2022/08/27 02:12:43;;;;;;;21.20;11.13;;;27.40;54.60;;;;;;5065705;28;20497;-89
2022/08/27 02:15:11;;;;;;;13.03;9.67;;;27.40;54.60;;;;;;5042805;28;20472;-89
2022/08/27 02:17:39;;;;;;;17.30;10.43;;;27.30;54.80;;;;;;5039587;28;20501;-89
2022/08/27 02:20:09;;;;;;;13.50;9.80;;;27.30;54.80;;;;;;5057714;28;20444;-89
2022/08/27 02:22:37;;;;;;;14.57;9.70;;;27.30;55.00;;;;;;5058614;28;20443;-89
2022/08/27 02:25:05;;;;;;;11.20;9.03;;;27.20;55.00;;;;;;5039776;28;20472;-88
2022/08/27 02:27:33;;;;;;;12.60;8.50;;;27.20;54.90;;;;;;5057324;28;20525;-89
2022/08/27 02:30:00;;;;;;;15.10;8.73;;;27.20;55.10;;;;;;5044417;28;20459;-90
2022/08/27 02:32:27;;;;;;;13.13;9.30;;;27.20;55.20;;;;;;5047555;28;20499;-89
2022/08/27 02:34:56;;;;;;;12.73;9.23;;;27.20;55.30;;;;;;5075319;28;20464;-89
2022/08/27 02:37:23;;;;;;;11.40;9.57;;;27.10;55.00;;;;;;5076258;28;20460;-89
2022/08/27 02:39:51;;;;;;;15.40;10.60;;;27.10;55.10;;;;;;5026238;28;20440;-89
2022/08/27 02:42:18;;;;;;;12.83;11.13;;;27.10;55.40;;;;;;5055569;28;20448;-89
2022/08/27 02:44:46;;;;;;;13.30;10.30;;;27.10;55.40;;;;;;5069816;28;20483;-89
2022/08/27 02:47:13;;;;;;;12.10;10.50;;;27.10;55.40;;;;;;5057285;28;20491;-89
2022/08/27 02:49:40;;;;;;;13.63;10.13;;;27.00;55.50;;;;;;5039402;28;20496;-88
2022/08/27 02:52:08;;;;;;;12.27;9.10;;;27.00;55.80;;;;;;5062955;28;20467;-88
2022/08/27 02:54:35;;;;;;;13.40;10.20;;;27.00;55.80;;;;;;5054377;28;20575;-89
2022/08/27 02:57:02;;;;;;;12.63;10.20;;;27.00;55.70;;;;;;5036466;28;20663;-89
2022/08/27 02:59:29;;;;;;;14.90;10.60;;;26.90;55.70;;;;;;5046691;28;20511;-90
2022/08/27 03:01:57;;;;;;;15.43;11.17;;;26.90;56.00;;;;;;5057348;28;20951;-90
2022/08/27 03:04:24;;;;;;;15.17;10.27;;;26.90;56.00;;;;;;5055258;28;20472;-88
2022/08/27 03:06:51;;;;;;;12.43;10.23;;;26.90;56.50;;;;;;5057285;28;20468;-88
2022/08/27 03:09:19;;;;;;;12.90;10.60;;;26.80;56.10;;;;;;5041984;28;20456;-86
2022/08/27 03:11:46;;;;;;;17.83;10.93;;;26.90;56.10;;;;;;5058580;28;20489;-89
2022/08/27 03:14:13;;;;;;;16.77;10.43;;;26.80;55.80;;;;;;5039697;28;20484;-89
2022/08/27 03:16:40;;;;;;;16.80;10.77;;;26.80;56.10;;;;;;5073163;28;20463;-89
2022/08/27 03:19:06;;;;;;;20.20;12.00;;;26.80;55.60;;;;;;5032360;28;20812;-89
2022/08/27 03:21:35;;;;;;;14.53;10.70;;;26.70;55.80;;;;;;5063431;28;20467;-88
2022/08/27 03:24:03;;;;;;;16.50;11.70;;;26.70;56.00;;;;;;5073506;28;20559;-88
2022/08/27 03:26:32;;;;;;;14.00;10.70;;;26.70;55.80;;;;;;5062521;28;20967;-89
2022/08/27 03:28:59;;;;;;;16.20;12.27;;;26.70;56.00;;;;;;5074772;28;20828;-89
2022/08/27 03:31:28;;;;;;;16.63;12.60;;;26.60;56.00;;;;;;5034840;28;20470;-89
2022/08/27 03:33:57;;;;;;;15.20;12.00;;;26.60;55.70;;;;;;5064303;28;20908;-87
2022/08/27 03:36:24;;;;;;;23.67;13.50;;;26.60;55.70;;;;;;5029791;28;20543;-90
2022/08/27 03:38:51;;;;;;;15.93;13.10;;;26.60;55.80;;;;;;5058068;28;20452;-87
2022/08/27 03:41:19;;;;;;;17.80;12.07;;;26.60;55.90;;;;;;5073021;28;20454;-89
2022/08/27 03:43:47;;;;;;;16.23;13.23;;;26.50;55.80;;;;;;5042521;28;20461;-90
2022/08/27 03:46:15;;;;;;;15.53;10.53;;;26.50;55.80;;;;;;5039358;28;20472;-91
2022/08/27 03:48:42;;;;;;;19.87;13.70;;;26.50;55.40;;;;;;5044552;28;20967;-90
2022/08/27 03:51:13;;;;;;;23.40;13.00;;;26.50;55.50;;;;;;5056474;28;20459;-88
2022/08/27 03:53:43;;;;;;;15.10;12.20;;;26.10;56.40;;;;;;5070386;28;20963;-89
2022/08/27 03:56:11;;;;;;;14.77;11.90;;;26.10;56.40;;;;;;5051383;28;20518;-89
2022/08/27 03:58:38;;;;;;;13.10;11.70;;;26.10;55.80;;;;;;5049848;28;20884;-90
2022/08/27 04:01:08;;;;;;;13.17;11.77;;;26.10;55.10;;;;;;5037894;28;20527;-89
2022/08/27 04:03:35;;;;;;;20.00;13.00;;;26.10;55.30;;;;;;5078526;28;20467;-89
2022/08/27 04:06:02;;;;;;;16.63;13.53;;;26.10;55.40;;;;;;5059492;28;21130;-89
2022/08/27 04:08:29;;;;;;;17.00;12.50;;;26.10;55.80;;;;;;5061136;28;20447;-89
2022/08/27 04:10:56;;;;;;;18.50;13.13;;;26.10;55.30;;;;;;5058871;28;20452;-88
2022/08/27 04:13:24;;;;;;;18.33;13.77;;;26.20;55.60;;;;;;5056653;28;20479;-89
2022/08/27 04:15:52;;;;;;;18.90;14.30;;;26.10;55.80;;;;;;5061367;28;20936;-88
2022/08/27 04:18:21;;;;;;;14.63;13.00;;;26.20;56.10;;;;;;5066571;28;21009;-89
2022/08/27 04:20:51;;;;;;;18.33;13.57;;;26.10;56.30;;;;;;5041695;28;20480;-89
2022/08/27 04:23:18;;;;;;;17.23;12.57;;;26.10;56.60;;;;;;5050099;28;20448;-89
2022/08/27 04:25:46;;;;;;;16.93;13.27;;;26.10;57.20;;;;;;5057086;28;20482;-89
2022/08/27 04:28:14;;;;;;;19.20;12.90;;;25.90;57.50;;;;;;5042162;28;20555;-89
2022/08/27 04:30:43;;;;;;;17.70;11.93;;;26.00;57.20;;;;;;5058083;28;20458;-89
2022/08/27 04:33:10;;;;;;;17.10;13.00;;;26.10;57.50;;;;;;5044655;28;20926;-89
2022/08/27 04:35:38;;;;;;;19.43;13.00;;;26.10;57.20;;;;;;5041782;28;20460;-88
2022/08/27 04:38:06;;;;;;;16.53;13.10;;;26.10;57.10;;;;;;5047572;28;20463;-88
2022/08/27 04:43:18;;;;;;;17.77;11.50;;;26.10;56.60;;;;;;5048930;28;20447;-88
2022/08/27 04:45:46;;;;;;;21.73;13.53;;;26.20;56.30;;;;;;5060164;28;20463;-90
2022/08/27 04:48:16;;;;;;;18.00;13.30;;;26.10;56.40;;;;;;5043128;28;20467;-89
2022/08/27 04:50:47;;;;;;;16.27;13.73;;;26.10;56.50;;;;;;5059904;28;20444;-88
2022/08/27 04:53:15;;;;;;;15.07;12.40;;;26.10;56.40;;;;;;5068397;28;20870;-89
2022/08/27 04:55:43;;;;;;;16.20;12.87;;;26.10;56.40;;;;;;5055225;28;20463;-89
2022/08/27 04:58:10;;;;;;;20.57;13.77;;;26.10;57.00;;;;;;5040491;28;20444;-90
2022/08/27 05:00:42;;;;;;;16.37;13.03;;;26.10;57.10;;;;;;5058111;28;20487;-90
2022/08/27 05:03:09;;;;;;;19.93;13.70;;;26.10;57.00;;;;;;5076433;28;20443;-90
2022/08/27 05:05:36;;;;;;;17.33;13.07;;;26.10;57.20;;;;;;5053514;28;20972;-89
2022/08/27 05:08:06;;;;;;;15.27;12.07;;;26.10;57.20;;;;;;5039540;28;20447;-90
2022/08/27 05:10:40;;;;;;;12.80;10.17;;;26.10;56.90;;;;;;5020930;28;20501;-89
2022/08/27 05:13:07;;;;;;;16.77;12.77;;;26.00;56.60;;;;;;5072506;28;20456;-90
2022/08/27 05:15:34;;;;;;;16.57;12.80;;;26.10;57.00;;;;;;5076719;28;20459;-89
2022/08/27 05:18:01;;;;;;;16.77;13.67;;;26.20;57.20;;;;;;5042392;28;21257;-89
2022/08/27 05:20:30;;;;;;;21.17;13.67;;;26.20;56.70;;;;;;5049991;28;20476;-89
2022/08/27 05:22:57;;;;;;;17.30;13.83;;;26.30;57.00;;;;;;5042035;28;20728;-89
2022/08/27 05:25:26;;;;;;;16.77;13.10;;;26.30;57.00;;;;;;5041649;28;21006;-88
2022/08/27 05:27:53;;;;;;;15.03;13.20;;;26.30;57.10;;;;;;5055269;28;20499;-88
2022/08/27 05:30:20;;;;;;;16.83;13.53;;;26.30;57.30;;;;;;5058833;28;20436;-89
2022/08/27 05:32:48;;;;;;;18.33;14.50;;;26.20;57.00;;;;;;5056474;28;20453;-89
2022/08/27 05:35:15;;;;;;;20.43;14.63;;;26.30;57.40;;;;;;5041483;28;20563;-88
2022/08/27 05:37:42;;;;;;;18.60;13.90;;;26.30;56.90;;;;;;5055247;28;20439;-89
2022/08/27 05:40:10;;;;;;;14.40;12.90;;;26.30;57.20;;;;;;5048322;28;20440;-89
2022/08/27 05:42:38;;;;;;;18.70;14.53;;;26.40;57.10;;;;;;5043511;28;21207;-88
2022/08/27 05:45:06;;;;;;;20.47;13.93;;;26.40;57.10;;;;;;5058664;28;20471;-89
2022/08/27 05:47:33;;;;;;;17.20;12.40;;;26.40;56.90;;;;;;5039510;28;20476;-90
2022/08/27 05:50:00;;;;;;;16.80;12.63;;;26.30;56.70;;;;;;5079224;28;20451;-88
2022/08/27 05:52:27;;;;;;;18.73;13.63;;;26.10;57.30;;;;;;5033133;28;20448;-89
2022/08/27 05:54:54;;;;;;;20.07;12.57;;;26.10;57.60;;;;;;5043887;28;20496;-88
2022/08/27 05:57:21;;;;;;;16.40;13.40;;;26.20;57.40;;;;;;5058033;28;20535;-89
2022/08/27 06:02:39;;;;;;;17.20;14.20;;;26.30;57.10;;;;;;5072180;28;20697;-88
2022/08/27 06:05:06;;;;;;;15.83;12.53;;;26.40;57.00;;;;;;5056281;28;20834;-88
2022/08/27 06:07:34;;;;;;;18.57;14.50;;;26.40;56.70;;;;;;5055661;28;20468;-90
2022/08/27 06:10:02;;;;;;;15.70;12.50;;;26.50;57.00;;;;;;5063626;28;20805;-91
2022/08/27 06:12:29;;;;;;;16.93;14.13;;;26.60;56.60;;;;;;5052843;28;20444;-89
2022/08/27 06:14:57;;;;;;;21.20;15.40;;;26.70;56.30;;;;;;5029559;28;20550;-90
2022/08/27 06:17:24;;;;;;;15.77;12.53;;;26.70;56.20;;;;;;5053341;28;20447;-89
2022/08/27 06:19:51;;;;;;;17.60;13.97;;;26.70;56.00;;;;;;5074584;28;20463;-89
2022/08/27 06:22:18;;;;;;;16.50;12.97;;;26.70;55.70;;;;;;5057309;28;20963;-90
2022/08/27 06:24:45;;;;;;;17.97;13.53;;;26.70;56.00;;;;;;5054903;28;20472;-89
2022/08/27 06:27:15;;;;;;;19.50;14.97;;;26.80;56.10;;;;;;5053781;28;21060;-89
2022/08/27 06:29:43;;;;;;;18.47;14.13;;;26.80;56.10;;;;;;5039960;28;20567;-88
2022/08/27 06:32:13;;;;;;;18.20;13.20;;;26.80;56.10;;;;;;5072610;28;20456;-89
2022/08/27 06:34:40;;;;;;;26.83;14.50;;;26.80;56.10;;;;;;5038793;28;20468;-89
2022/08/27 06:37:07;;;;;;;15.40;11.87;;;26.80;55.90;;;;;;5037665;28;20467;-89
2022/08/27 06:39:35;;;;;;;17.93;13.27;;;26.90;55.60;;;;;;5073161;28;21174;-89
2022/08/27 06:42:02;;;;;;;16.83;13.73;;;26.90;55.40;;;;;;5053526;28;20855;-89
2022/08/27 06:44:33;;;;;;;17.80;12.93;;;26.80;55.30;;;;;;5040009;28;20694;-89
2022/08/27 06:47:02;;;;;;;19.40;13.23;;;26.80;55.80;;;;;;5070680;28;20472;-88
2022/08/27 06:49:32;;;;;;;18.10;12.17;;;26.80;55.70;;;;;;5072013;28;20433;-88
2022/08/27 06:51:59;;;;;;;19.40;12.63;;;26.80;55.70;;;;;;5047245;28;20906;-89
2022/08/27 06:54:26;;;;;;;18.00;12.70;;;26.90;55.30;;;;;;5071192;28;20475;-89
2022/08/27 06:56:53;;;;;;;14.07;11.97;;;26.90;55.10;;;;;;5054454;28;20444;-89
2022/08/27 06:59:20;;;;;;;16.93;12.50;;;26.90;55.00;;;;;;5052921;28;21122;-89
2022/08/27 07:01:49;;;;;;;17.07;13.10;;;26.90;55.10;;;;;;5072653;28;21134;-89
2022/08/27 07:04:20;;;;;;;14.27;11.33;;;27.10;54.80;;;;;;5052648;28;20524;-89
2022/08/27 07:06:49;;;;;;;19.50;13.50;;;27.30;54.50;;;;;;5035366;28;20465;-90
2022/08/27 07:09:19;;;;;;;15.73;11.90;;;27.30;54.10;;;;;;5045714;28;20451;-89
2022/08/27 07:11:46;;;;;;;17.33;12.70;;;27.40;54.10;;;;;;5035063;28;20971;-89
2022/08/27 07:14:13;;;;;;;21.30;11.40;;;27.40;54.10;;;;;;5049028;28;20472;-89
2022/08/27 07:16:41;;;;;;;14.83;12.30;;;27.60;53.60;;;;;;5072217;28;20445;-89
2022/08/27 07:19:08;;;;;;;15.03;12.00;;;27.70;53.50;;;;;;5050945;28;20440;-89
2022/08/27 07:21:38;;;;;;;19.00;11.23;;;27.50;53.70;;;;;;5058646;28;20542;-89
2022/08/27 07:24:07;;;;;;;14.40;11.17;;;27.50;53.30;;;;;;5054618;28;20476;-89
2022/08/27 07:26:36;;;;;;;13.10;9.80;;;27.50;53.60;;;;;;5045633;28;20506;-89
2022/08/27 07:29:05;;;;;;;17.90;10.97;;;27.60;53.40;;;;;;5043648;28;20535;-91
2022/08/27 07:31:34;;;;;;;11.20;9.47;;;27.70;53.00;;;;;;5057927;28;20444;-89
2022/08/27 07:34:01;;;;;;;17.57;11.40;;;27.70;53.10;;;;;;5066585;28;20473;-89
2022/08/27 07:36:28;;;;;;;12.00;9.97;;;27.50;53.50;;;;;;5076085;28;20460;-89
2022/08/27 07:38:55;;;;;;;12.13;10.87;;;27.40;53.50;;;;;;5074465;28;20448;-89
2022/08/27 07:41:24;;;;;;;13.57;10.07;;;27.50;53.50;;;;;;5041195;28;20539;-90
2022/08/27 07:46:36;;;;;;;17.23;10.03;;;27.50;53.30;;;;;;5058439;28;20440;-89
2022/08/27 07:49:03;;;;;;;10.93;8.40;;;27.60;52.90;;;;;;5035942;27;20448;-91
2022/08/27 07:51:31;;;;;;;17.73;8.30;;;27.70;52.70;;;;;;5026307;28;20475;-90
2022/08/27 07:53:59;;;;;;;12.73;9.47;;;27.40;53.70;;;;;;5076715;28;20508;-89
2022/08/27 07:56:28;;;;;;;9.20;8.17;;;27.50;53.50;;;;;;5079235;28;20540;-89
2022/08/27 07:58:55;;;;;;;11.87;8.37;;;27.50;53.40;;;;;;5061837;28;20449;-89
2022/08/27 08:01:22;;;;;;;12.23;7.60;;;27.50;53.10;;;;;;5049171;28;20448;-90
2022/08/27 08:03:49;;;;;;;9.90;8.10;;;27.50;53.10;;;;;;5040913;28;20494;-91
2022/08/27 08:06:17;;;;;;;9.67;6.47;;;27.50;52.90;;;;;;5049493;28;20436;-89
2022/08/27 08:08:44;;;;;;;10.80;7.60;;;27.50;52.80;;;;;;5057171;28;20464;-89
2022/08/27 08:11:14;;;;;;;13.37;8.10;;;27.60;52.50;;;;;;5078605;28;21043;-90
2022/08/27 08:13:42;;;;;;;9.67;7.10;;;27.50;52.40;;;;;;5078234;28;20866;-90
2022/08/27 08:16:09;;;;;;;10.03;7.13;;;27.70;52.10;;;;;;5042838;28;20456;-88
2022/08/27 08:18:36;;;;;;;9.10;7.00;;;27.80;51.90;;;;;;5041597;28;20444;-91
2022/08/27 08:21:06;;;;;;;10.30;7.40;;;27.80;51.70;;;;;;5076689;28;20455;-88
2022/08/27 08:23:33;;;;;;;10.90;7.23;;;27.80;51.40;;;;;;5064129;28;20463;-88
2022/08/27 08:26:00;;;;;;;10.87;7.30;;;27.80;51.60;;;;;;5046648;28;20472;-88
2022/08/27 08:28:28;;;;;;;9.23;7.00;;;27.70;51.50;;;;;;5078734;28;20471;-89
2022/08/27 08:30:57;;;;;;;9.73;7.13;;;27.80;51.20;;;;;;5040737;28;20444;-86
2022/08/27 08:33:26;;;;;;;9.20;7.73;;;27.70;51.50;;;;;;5054878;28;20445;-89
2022/08/27 08:35:53;;;;;;;8.80;6.50;;;27.80;51.60;;;;;;5058085;28;20448;-88
2022/08/27 08:38:20;;;;;;;8.83;7.33;;;27.80;51.30;;;;;;5072461;28;20440;-87
2022/08/27 08:40:52;;;;;;;8.47;7.03;;;27.70;51.30;;;;;;5047977;28;21082;-90
2022/08/27 08:43:28;;;;;;;7.27;6.53;;;27.80;51.30;;;;;;5040742;28;20448;-88
2022/08/27 08:46:01;;;;;;;12.90;7.00;;;28.00;51.00;;;;;;5046277;28;20453;-88
2022/08/27 08:48:30;;;;;;;8.10;6.50;;;27.90;50.90;;;;;;5053039;28;20465;-89
2022/08/27 08:51:02;;;;;;;8.63;6.60;;;28.00;50.80;;;;;;5052965;28;20466;-89
2022/08/27 08:53:40;;;;;;;8.20;6.90;;;27.90;50.80;;;;;;5051761;28;20475;-91
2022/08/27 08:56:12;;;;;;;10.37;6.90;;;27.70;51.30;;;;;;5063666;28;20439;-89
2022/08/27 08:58:45;;;;;;;10.87;6.40;;;27.80;51.30;;;;;;5038908;28;21014;-88
2022/08/27 09:01:17;;;;;;;8.13;6.40;;;27.90;51.20;;;;;;5052615;28;21066;-89
2022/08/27 09:03:52;;;;;;;6.90;6.30;;;27.90;50.90;;;;;;5053918;28;20559;-89
2022/08/27 09:06:26;;;;;;;11.60;7.83;;;28.00;50.90;;;;;;5047169;28;20527;-88
2022/08/27 09:08:54;;;;;;;7.33;6.60;;;28.10;50.60;;;;;;5068535;28;20478;-90
2022/08/27 09:11:30;;;;;;;10.70;6.87;;;28.10;50.50;;;;;;5045744;28;20453;-87
2022/08/27 09:14:01;;;;;;;12.60;6.80;;;28.10;50.20;;;;;;5073404;28;20480;-89
2022/08/27 09:16:31;;;;;;;7.37;6.10;;;28.10;50.00;;;;;;5040139;28;20452;-90
2022/08/27 09:19:01;;;;;;;17.13;6.60;;;28.20;50.10;;;;;;5073680;28;20570;-89
2022/08/27 09:21:40;;;;;;;9.10;6.27;;;28.20;49.80;;;;;;5064008;28;21074;-89
2022/08/27 09:24:13;;;;;;;9.20;6.37;;;28.30;49.50;;;;;;5060165;28;20464;-88
2022/08/27 09:26:42;;;;;;;9.20;6.20;;;28.40;49.50;;;;;;5074871;28;20447;-89
2022/08/27 09:29:21;;;;;;;10.57;7.03;;;28.40;49.40;;;;;;5039922;28;20467;-89
2022/08/27 09:31:55;;;;;;;11.80;6.27;;;28.40;49.40;;;;;;5071261;28;20450;-90
2022/08/27 09:34:24;;;;;;;6.30;5.70;;;28.50;49.30;;;;;;5042351;28;20475;-89
2022/08/27 09:37:05;;;;;;;9.60;5.80;;;28.50;48.70;;;;;;5058558;28;20445;-89
2022/08/27 09:39:46;;;;;;;6.33;5.73;;;28.50;49.00;;;;;;5048109;28;20456;-89
2022/08/27 09:42:25;;;;;;;9.47;5.53;;;28.60;48.80;;;;;;5049202;28;20451;-90
2022/08/27 09:44:54;;;;;;;6.67;5.67;;;28.60;48.70;;;;;;5071630;28;20582;-89
2022/08/27 09:47:23;;;;;;;9.73;5.70;;;28.60;48.20;;;;;;5055915;28;20456;-89
2022/08/27 09:50:01;;;;;;;6.50;5.90;;;28.70;48.30;;;;;;5054798;28;20468;-90
2022/08/27 09:52:32;;;;;;;7.23;5.97;;;28.80;47.50;;;;;;5065082;28;20440;-90
2022/08/27 09:55:00;;;;;;;10.63;5.33;;;28.70;47.90;;;;;;5071353;28;20479;-91
2022/08/27 09:57:33;;;;;;;8.03;5.60;;;28.90;47.70;;;;;;5056876;28;21286;-90
2022/08/27 10:00:01;;;;;;;11.80;5.90;;;29.10;47.50;;;;;;5057223;28;20985;-92
2022/08/27 10:02:30;;;;;;;6.07;5.20;;;29.20;47.10;;;;;;5056343;28;20444;-90
2022/08/27 10:05:01;;;;;;;7.70;5.93;;;29.00;47.00;;;;;;5025115;28;20935;-89
2022/08/27 10:07:45;;;;;;;10.00;6.50;;;28.90;47.70;;;;;;5040283;28;20441;-89
2022/08/27 10:10:17;;;;;;;7.60;6.50;;;28.90;47.90;;;;;;5057979;28;20512;-88
2022/08/27 10:12:53;;;;;;;6.87;6.17;;;28.90;47.20;;;;;;5055515;28;20436;-91
2022/08/27 10:15:23;;;;;;;6.60;5.87;;;28.80;47.80;;;;;;5071696;28;20464;-90
2022/08/27 10:18:01;;;;;;;11.70;5.80;;;28.80;47.60;;;;;;5059482;28;20931;-90
2022/08/27 10:20:35;;;;;;;6.80;5.03;;;28.80;47.50;;;;;;5059737;28;20816;-90
2022/08/27 10:23:15;;;;;;;8.27;5.40;;;28.80;47.60;;;;;;5058195;28;20449;-89
2022/08/27 10:25:51;;;;;;;7.10;5.60;;;28.90;47.60;;;;;;5074303;28;20950;-89
2022/08/27 10:28:32;;;;;;;8.00;6.03;;;29.10;47.50;;;;;;5041496;28;20475;-87
2022/08/27 10:31:15;;;;;;;7.37;5.37;;;29.10;47.30;;;;;;5038880;28;20450;-92
2022/08/27 10:33:56;;;;;;;7.43;6.30;;;29.10;47.30;;;;;;5053836;28;20475;-89
2022/08/27 10:36:36;;;;;;;6.00;5.20;;;29.10;46.90;;;;;;5057772;28;20449;-90
2022/08/27 10:39:09;;;;;;;6.03;5.40;;;29.20;47.40;;;;;;5047640;28;20466;-87
2022/08/27 10:41:42;;;;;;;9.80;6.07;;;29.20;47.10;;;;;;5057724;28;20439;-90
2022/08/27 10:44:25;;;;;;;6.30;5.50;;;29.30;47.00;;;;;;5077115;28;20471;-90
2022/08/27 10:47:12;;;;;;;8.10;5.57;;;29.30;46.70;;;;;;5059282;28;20447;-89
2022/08/27 10:49:49;;;;;;;9.00;4.70;;;29.30;46.80;;;;;;5038225;28;20974;-90
2022/08/27 10:52:21;;;;;;;10.13;6.50;;;29.20;46.40;;;;;;5055833;28;20551;-91
2022/08/27 10:54:57;;;;;;;8.70;5.70;;;29.20;46.90;;;;;;5058070;28;20468;-89
2022/08/27 10:57:35;;;;;;;5.93;5.33;;;29.30;46.90;;;;;;5054118;28;20444;-89
2022/08/27 11:00:10;;;;;;;5.77;4.90;;;29.60;46.60;;;;;;5056605;28;20885;-88
2022/08/27 11:02:42;;;;;;;11.13;5.70;;;29.70;46.10;;;;;;5034615;28;20455;-90
2022/08/27 11:05:17;;;;;;;5.60;5.10;;;29.90;45.30;;;;;;5055929;28;20492;-89
2022/08/27 11:07:51;;;;;;;8.87;5.80;;;29.80;45.40;;;;;;5036960;28;20467;-90
2022/08/27 11:10:23;;;;;;;10.83;5.57;;;29.70;45.80;;;;;;5028023;28;21024;-88
2022/08/27 11:12:55;;;;;;;7.47;5.60;;;29.80;46.10;;;;;;5045288;28;20451;-87
2022/08/27 11:15:25;;;;;;;6.60;5.47;;;29.90;45.20;;;;;;5063152;28;20495;-88
2022/08/27 11:17:59;;;;;;;5.30;4.80;;;30.00;45.30;;;;;;5075411;28;21496;-91
2022/08/27 11:20:31;;;;;;;5.30;4.80;;;30.20;45.00;;;;;;5059967;28;20961;-89
2022/08/27 11:23:03;;;;;;;6.53;4.83;;;30.00;44.80;;;;;;5046923;28;20467;-88
2022/08/27 11:25:45;;;;;;;7.63;4.80;;;29.90;45.00;;;;;;5054681;28;20467;-89
2022/08/27 11:28:13;;;;;;;5.17;4.77;;;29.80;45.10;;;;;;5053193;28;20460;-87
2022/08/27 11:30:52;;;;;;;6.40;4.80;;;29.80;44.90;;;;;;5053524;28;20867;-89
2022/08/27 11:33:28;;;;;;;5.40;4.80;;;29.70;44.80;;;;;;5073275;28;20447;-90
2022/08/27 11:36:34;;;;;;;6.40;5.50;;;29.80;45.30;;;;;;5050035;28;20439;-89
2022/08/27 11:39:05;;;;;;;5.50;5.00;;;30.20;45.00;;;;;;4985928;28;20483;-89
2022/08/27 11:41:49;;;;;;;6.70;4.50;;;30.30;43.80;;;;;;5063936;28;20538;-89
2022/08/27 11:44:17;;;;;;;5.90;5.17;;;30.20;43.60;;;;;;5072625;28;20627;-89
2022/08/27 11:46:47;;;;;;;5.33;4.17;;;30.40;44.10;;;;;;5064300;28;20953;-89
2022/08/27 11:49:26;;;;;;;4.23;3.93;;;30.30;43.30;;;;;;5073251;28;20468;-89
2022/08/27 11:52:06;;;;;;;5.10;4.60;;;30.50;43.70;;;;;;5036138;28;20456;-89
2022/08/27 11:54:45;;;;;;;5.60;5.10;;;30.60;43.00;;;;;;5035519;28;20570;-89
2022/08/27 11:57:17;;;;;;;5.03;4.40;;;30.80;43.30;;;;;;5069140;28;20458;-87
2022/08/27 11:59:43;;;;;;;4.60;4.27;;;30.70;42.60;;;;;;5053866;28;20831;-90
2022/08/27 12:02:20;;;;;;;4.80;4.40;;;30.40;43.10;;;;;;5066170;28;20449;-90
2022/08/27 12:04:47;;;;;;;8.03;4.43;;;30.50;43.40;;;;;;5070042;28;20988;-89
2022/08/27 12:07:28;;;;;;;6.23;4.70;;;30.80;42.90;;;;;;5056678;28;20470;-89
2022/08/27 12:10:10;;;;;;;7.33;4.53;;;31.00;42.00;;;;;;5042178;28;20467;-89
2022/08/27 12:12:51;;;;;;;4.37;3.97;;;31.20;42.00;;;;;;5042999;28;21079;-90
2022/08/27 12:15:24;;;;;;;5.60;4.90;;;31.50;41.70;;;;;;5043424;28;20484;-89
2022/08/27 12:18:08;;;;;;;5.60;5.00;;;31.90;41.00;;;;;;5034784;28;20810;-89
2022/08/27 12:20:45;;;;;;;4.90;4.40;;;32.20;39.30;;;;;;5074771;28;20437;-89
2022/08/27 12:23:42;;;;;;;5.50;4.57;;;32.20;39.40;;;;;;5075714;28;20436;-89
2022/08/27 12:26:26;;;;;;;4.53;4.10;;;32.20;39.70;;;;;;5032931;28;20456;-89
2022/08/27 12:29:16;;;;;;;7.20;4.67;;;32.10;38.80;;;;;;5048184;28;20483;-89
2022/08/27 12:31:47;;;;;;;5.10;4.63;;;32.00;39.70;;;;;;5052899;28;20475;-88
2022/08/27 12:34:15;;;;;;;4.43;4.13;;;32.00;39.10;;;;;;5053275;28;20472;-89
2022/08/27 12:36:45;;;;;;;5.67;5.07;;;31.90;39.00;;;;;;5064440;28;20456;-90
2022/08/27 12:39:16;;;;;;;4.83;4.30;;;31.50;39.90;;;;;;5073912;28;20449;-86
2022/08/27 12:41:46;;;;;;;4.50;4.10;;;31.50;40.00;;;;;;5053122;28;20453;-90
2022/08/27 12:44:22;;;;;;;6.73;4.30;;;31.60;40.40;;;;;;5050124;28;20661;-91
2022/08/27 12:46:53;;;;;;;15.70;6.80;;;31.50;40.40;;;;;;5055739;28;20458;-88
2022/08/27 12:49:26;;;;;;;14.63;7.37;;;31.00;49.20;;;;;;5055338;28;20472;-88
2022/08/27 12:51:53;;;;;;;13.80;7.63;;;30.80;51.90;;;;;;5063303;28;20462;-86
2022/08/27 12:54:36;;;;;;;7.87;6.83;;;30.60;52.00;;;;;;5070909;28;20571;-87
2022/08/27 12:57:08;;;;;;;10.57;7.03;;;30.60;51.60;;;;;;5071561;28;21380;-87
2022/08/27 12:59:50;;;;;;;12.43;6.27;;;30.60;53.30;;;;;;5072623;28;20475;-86